createdAt,value
2018-02-12T00:01:41.954Z,31.89
2018-02-12T00:04:10.369Z,31.92
2018-02-12T00:06:38.672Z,31.92
2018-02-12T00:09:06.968Z,31.91
2018-02-12T00:11:35.259Z,31.95
2018-02-12T00:14:03.552Z,31.94
2018-02-12T00:16:31.830Z,31.96
2018-02-12T00:19:00.114Z,31.92
2018-02-12T00:21:28.400Z,31.94
2018-02-12T00:23:56.701Z,31.91
2018-02-12T00:26:25.000Z,31.90
2018-02-12T00:28:53.294Z,31.92
2018-02-12T00:31:21.591Z,31.96
2018-02-12T00:33:49.881Z,31.93
2018-02-12T00:36:18.217Z,31.89
2018-02-12T00:38:46.525Z,31.92
2018-02-12T00:41:14.850Z,31.92
2018-02-12T00:43:43.133Z,31.94
2018-02-12T00:46:11.401Z,31.96
2018-02-12T00:48:39.709Z,31.96
2018-02-12T00:51:08.000Z,31.93
2018-02-12T00:53:36.296Z,31.94
2018-02-12T00:56:04.372Z,31.92
2018-02-12T00:58:32.667Z,31.92
2018-02-12T01:01:00.951Z,31.96
2018-02-12T01:03:29.253Z,31.94
2018-02-12T01:05:57.577Z,31.91
2018-02-12T01:08:25.870Z,31.88
2018-02-12T01:10:54.153Z,31.84
2018-02-12T01:13:22.458Z,31.84
2018-02-12T01:15:50.758Z,31.82
2018-02-12T01:18:19.084Z,31.82
2018-02-12T01:20:47.185Z,31.81
2018-02-12T01:23:15.473Z,31.80
2018-02-12T01:25:43.760Z,31.80
2018-02-12T01:28:12.048Z,31.82
2018-02-12T01:30:40.320Z,31.80
2018-02-12T01:33:08.606Z,31.84
2018-02-12T01:35:36.893Z,31.77
2018-02-12T01:38:05.176Z,31.77
2018-02-12T01:40:34.245Z,31.77
2018-02-12T01:43:02.530Z,31.82
2018-02-12T01:45:30.831Z,31.81
2018-02-12T01:47:59.154Z,31.78
2018-02-12T01:50:27.288Z,31.77
2018-02-12T01:52:55.567Z,31.79
2018-02-12T01:55:23.906Z,31.78
2018-02-12T01:57:52.190Z,31.79
2018-02-12T02:00:20.490Z,31.78
2018-02-12T02:02:48.783Z,31.78
2018-02-12T02:05:17.074Z,31.75
2018-02-12T02:07:45.357Z,31.75
2018-02-12T02:10:13.629Z,31.73
2018-02-12T02:12:41.952Z,31.73
2018-02-12T02:15:10.244Z,31.78
2018-02-12T02:17:38.540Z,31.72
2018-02-12T02:20:06.851Z,31.70
2018-02-12T02:22:35.126Z,31.71
2018-02-12T02:25:03.404Z,31.68
2018-02-12T02:27:31.752Z,31.73
2018-02-12T02:30:00.056Z,31.70
2018-02-12T02:32:28.365Z,31.67
2018-02-12T02:34:56.658Z,31.67
2018-02-12T02:37:24.975Z,31.64
2018-02-12T02:39:53.265Z,31.66
2018-02-12T02:42:21.569Z,31.68
2018-02-12T02:44:49.871Z,31.68
2018-02-12T02:47:18.171Z,31.69
2018-02-12T02:49:46.470Z,31.75
2018-02-12T02:52:14.775Z,31.78
2018-02-12T02:54:43.087Z,31.72
2018-02-12T02:57:11.378Z,31.73
2018-02-12T02:59:39.672Z,31.69
2018-02-12T03:02:07.976Z,31.67
2018-02-12T03:04:36.272Z,31.75
2018-02-12T03:07:04.581Z,31.75
2018-02-12T03:09:32.869Z,31.73
2018-02-12T03:12:01.149Z,31.77
2018-02-12T03:14:29.481Z,31.49
2018-02-12T03:16:57.788Z,31.08
2018-02-12T03:19:26.083Z,30.63
2018-02-12T03:21:54.385Z,30.50
2018-02-12T03:24:22.680Z,30.68
2018-02-12T03:26:50.979Z,31.29
2018-02-12T03:29:19.263Z,31.31
2018-02-12T03:31:47.574Z,31.24
2018-02-12T03:34:15.863Z,31.27
2018-02-12T03:36:44.144Z,31.26
2018-02-12T03:39:12.440Z,26.07
2018-02-12T03:41:40.746Z,25.65
2018-02-12T03:44:09.049Z,26.82
2018-02-12T03:46:37.157Z,27.24
2018-02-12T03:49:05.452Z,27.79
2018-02-12T03:51:33.749Z,28.23
2018-02-12T03:54:02.031Z,28.41
2018-02-12T03:56:30.347Z,28.74
2018-02-12T03:58:58.635Z,28.79
2018-02-12T04:01:26.938Z,29.08
2018-02-12T04:03:55.222Z,29.25
2018-02-12T04:06:23.552Z,29.39
2018-02-12T04:08:51.845Z,29.57
2018-02-12T04:11:20.153Z,29.69
2018-02-12T04:13:48.474Z,29.80
2018-02-12T04:16:16.800Z,30.97
2018-02-12T04:18:44.926Z,32.43
2018-02-12T04:21:13.220Z,33.27
2018-02-12T04:23:41.513Z,33.94
2018-02-12T04:26:09.805Z,33.78
2018-02-12T04:28:38.107Z,34.73
2018-02-12T04:31:06.423Z,34.50
2018-02-12T04:33:34.716Z,35.94
2018-02-12T04:36:03.027Z,36.13
2018-02-12T04:38:31.344Z,36.33
2018-02-12T04:40:59.639Z,36.80
2018-02-12T04:43:27.928Z,37.19
2018-02-12T04:45:56.244Z,37.17
2018-02-12T04:48:24.656Z,37.18
2018-02-12T04:50:52.960Z,37.40
2018-02-12T04:53:21.279Z,36.91
2018-02-12T04:55:49.579Z,36.83
2018-02-12T04:58:17.868Z,36.76
2018-02-12T05:00:46.199Z,36.57
2018-02-12T05:03:14.487Z,36.42
2018-02-12T05:05:42.787Z,36.24
2018-02-12T05:08:11.121Z,36.21
2018-02-12T05:10:39.412Z,36.00
2018-02-12T05:13:07.737Z,36.02
2018-02-12T05:15:36.039Z,35.79
2018-02-12T05:18:04.345Z,35.62
2018-02-12T05:20:32.721Z,35.73
2018-02-12T05:23:01.039Z,35.49
2018-02-12T05:25:29.375Z,35.53
2018-02-12T05:27:57.686Z,35.43
2018-02-12T05:30:25.970Z,35.29
2018-02-12T05:32:54.276Z,35.30
2018-02-12T05:35:22.567Z,35.08
2018-02-12T05:37:50.880Z,35.15
2018-02-12T05:40:19.171Z,35.09
2018-02-12T05:42:47.466Z,34.99
2018-02-12T05:45:15.795Z,35.08
2018-02-12T05:47:44.094Z,34.67
2018-02-12T05:50:12.388Z,34.26
2018-02-12T05:52:40.684Z,33.68
2018-02-12T05:55:08.999Z,33.25
2018-02-12T05:57:37.287Z,32.88
2018-02-12T06:00:05.601Z,32.52
2018-02-12T06:02:33.909Z,32.44
2018-02-12T06:05:02.201Z,32.94
2018-02-12T06:07:30.528Z,33.01
2018-02-12T06:09:58.845Z,33.23
2018-02-12T06:12:27.119Z,33.28
2018-02-12T06:14:55.445Z,33.38
2018-02-12T06:17:23.740Z,33.50
2018-02-12T06:19:52.055Z,33.46
2018-02-12T06:22:20.333Z,33.52
2018-02-12T06:24:48.634Z,33.62
2018-02-12T06:27:16.936Z,33.59
2018-02-12T06:29:45.236Z,33.76
2018-02-12T06:32:13.528Z,34.07
2018-02-12T06:34:41.838Z,33.71
2018-02-12T06:37:10.140Z,33.74
2018-02-12T06:39:38.418Z,33.36
2018-02-12T06:42:06.717Z,32.04
2018-02-12T06:44:35.019Z,32.71
2018-02-12T06:47:03.298Z,28.53
2018-02-12T06:49:31.602Z,26.19
2018-02-12T06:51:59.908Z,26.31
2018-02-12T06:54:28.210Z,26.05
2018-02-12T06:56:56.527Z,26.48
2018-02-12T06:59:24.820Z,26.20
2018-02-12T07:01:53.127Z,25.98
2018-02-12T07:04:21.440Z,26.28
2018-02-12T07:06:49.772Z,26.13
2018-02-12T07:09:18.074Z,26.14
2018-02-12T07:11:46.362Z,26.18
2018-02-12T07:14:14.679Z,26.14
2018-02-12T07:16:42.958Z,26.48
2018-02-12T07:19:11.301Z,26.27
2018-02-12T07:21:39.627Z,26.28
2018-02-12T07:24:07.922Z,26.42
2018-02-12T07:26:36.230Z,26.09
2018-02-12T07:29:04.524Z,26.32
2018-02-12T07:31:32.617Z,26.37
2018-02-12T07:34:00.903Z,26.60
2018-02-12T07:36:29.219Z,26.58
2018-02-12T07:38:57.514Z,26.95
2018-02-12T07:41:25.814Z,27.02
2018-02-12T07:43:54.126Z,26.60
2018-02-12T07:46:22.414Z,26.58
2018-02-12T07:48:50.702Z,27.00
2018-02-12T07:51:19.009Z,26.73
2018-02-12T07:53:47.464Z,27.01
2018-02-12T07:56:15.784Z,27.05
2018-02-12T07:58:44.089Z,27.03
2018-02-12T08:01:12.410Z,27.03
2018-02-12T08:03:40.698Z,26.72
2018-02-12T08:06:09.021Z,26.70
2018-02-12T08:08:37.495Z,26.85
2018-02-12T08:11:05.782Z,26.70
2018-02-12T08:13:34.088Z,26.68
2018-02-12T08:16:02.389Z,26.90
2018-02-12T08:18:30.693Z,26.72
2018-02-12T08:20:59.009Z,26.91
2018-02-12T08:23:27.312Z,26.69
2018-02-12T08:25:55.654Z,26.27
2018-02-12T08:28:23.954Z,26.01
2018-02-12T08:30:52.242Z,26.19
2018-02-12T08:33:20.535Z,26.39
2018-02-12T08:35:48.838Z,26.57
2018-02-12T08:38:17.114Z,26.70
2018-02-12T08:40:45.425Z,26.91
2018-02-12T08:43:13.728Z,27.07
2018-02-12T08:45:42.050Z,27.14
2018-02-12T08:48:10.343Z,27.26
2018-02-12T08:50:38.670Z,27.35
2018-02-12T08:53:06.946Z,27.41
2018-02-12T08:55:35.227Z,27.52
2018-02-12T08:58:03.528Z,27.54
2018-02-12T09:00:31.832Z,27.63
2018-02-12T09:03:00.146Z,27.72
2018-02-12T09:05:28.443Z,27.89
2018-02-12T09:07:56.751Z,27.90
2018-02-12T09:10:25.046Z,28.08
2018-02-12T09:12:53.344Z,28.10
2018-02-12T09:15:21.638Z,28.16
2018-02-12T09:17:49.921Z,28.19
2018-02-12T09:20:18.072Z,28.15
2018-02-12T09:22:46.381Z,28.24
2018-02-12T09:25:14.661Z,28.23
2018-02-12T09:27:42.984Z,28.17
2018-02-12T09:30:11.472Z,28.23
2018-02-12T09:32:39.752Z,28.22
2018-02-12T09:35:08.111Z,28.22
2018-02-12T09:37:36.456Z,28.28
2018-02-12T09:40:04.584Z,28.28
2018-02-12T09:42:32.888Z,28.38
2018-02-12T09:45:01.197Z,28.38
2018-02-12T09:47:29.504Z,28.44
2018-02-12T09:49:58.023Z,28.44
2018-02-12T09:52:26.327Z,28.44
2018-02-12T09:54:54.650Z,28.47
2018-02-12T09:57:22.935Z,28.34
2018-02-12T09:59:51.218Z,28.32
2018-02-12T10:02:19.522Z,28.25
2018-02-12T10:04:47.825Z,28.33
2018-02-12T10:07:16.116Z,28.34
2018-02-12T10:09:44.432Z,28.36
2018-02-12T10:12:12.808Z,27.98
2018-02-12T10:14:41.116Z,26.00
2018-02-12T10:17:09.404Z,27.04
2018-02-12T10:19:37.717Z,27.78
2018-02-12T10:22:06.021Z,28.15
2018-02-12T10:24:34.328Z,28.26
2018-02-12T10:27:02.634Z,28.28
2018-02-12T10:29:30.933Z,28.32
2018-02-12T10:31:59.265Z,28.40
2018-02-12T10:34:27.569Z,28.52
2018-02-12T10:36:55.881Z,28.59
2018-02-12T10:39:24.185Z,28.63
2018-02-12T10:41:52.502Z,28.67
2018-02-12T10:44:20.808Z,28.74
2018-02-12T10:46:49.199Z,28.81
2018-02-12T10:49:17.497Z,28.84
2018-02-12T10:51:45.794Z,28.83
2018-02-12T10:54:14.119Z,28.87
2018-02-12T10:56:42.483Z,28.95
2018-02-12T10:59:10.990Z,28.96
2018-02-12T11:01:39.461Z,29.01
2018-02-12T11:04:07.825Z,29.05
2018-02-12T11:06:36.272Z,29.06
2018-02-12T11:09:04.143Z,29.03
2018-02-12T11:11:32.453Z,29.02
2018-02-12T11:14:00.774Z,29.01
2018-02-12T11:16:29.108Z,29.06
2018-02-12T11:18:57.399Z,29.05
2018-02-12T11:21:25.699Z,29.02
2018-02-12T11:23:54.003Z,29.06
2018-02-12T11:26:22.298Z,29.14
2018-02-12T11:28:50.596Z,29.21
2018-02-12T11:31:18.902Z,29.24
2018-02-12T11:33:47.190Z,29.20
2018-02-12T11:36:15.486Z,29.02
2018-02-12T11:38:43.853Z,29.12
2018-02-12T11:41:12.162Z,29.09
2018-02-12T11:43:40.459Z,29.24
2018-02-12T11:46:08.772Z,29.28
2018-02-12T11:48:37.074Z,29.27
2018-02-12T11:51:05.373Z,29.27
2018-02-12T11:53:33.693Z,29.22
2018-02-12T11:56:02.004Z,29.27
2018-02-12T11:58:30.126Z,29.31
2018-02-12T12:00:58.420Z,29.44
2018-02-12T12:03:26.717Z,29.51
2018-02-12T12:05:55.177Z,29.54
2018-02-12T12:08:23.522Z,29.51
2018-02-12T12:10:51.844Z,29.50
2018-02-12T12:13:20.145Z,29.45
2018-02-12T12:15:48.464Z,29.22
2018-02-12T12:18:16.867Z,29.27
2018-02-12T12:20:45.204Z,29.29
2018-02-12T12:23:13.550Z,29.46
2018-02-12T12:25:41.664Z,29.49
2018-02-12T12:28:09.970Z,29.61
2018-02-12T12:30:38.270Z,29.90
2018-02-12T12:33:06.585Z,29.91
2018-02-12T12:35:34.892Z,29.99
2018-02-12T12:38:03.287Z,30.17
2018-02-12T12:40:31.596Z,30.18
2018-02-12T12:43:00.517Z,30.15
2018-02-12T12:45:28.823Z,30.17
2018-02-12T12:47:57.115Z,30.16
2018-02-12T12:50:25.456Z,29.89
2018-02-12T12:52:53.765Z,29.94
2018-02-12T12:55:22.070Z,30.13
2018-02-12T12:57:50.377Z,30.12
2018-02-12T13:00:18.717Z,30.21
2018-02-12T13:02:47.031Z,30.35
2018-02-12T13:05:15.362Z,30.42
2018-02-12T13:07:43.672Z,30.29
2018-02-12T13:10:11.979Z,30.37
2018-02-12T13:12:40.289Z,30.42
2018-02-12T13:15:08.586Z,30.26
2018-02-12T13:17:36.880Z,30.16
2018-02-12T13:20:05.208Z,30.02
2018-02-12T13:22:33.519Z,30.12
2018-02-12T13:25:01.876Z,30.16
2018-02-12T13:27:30.191Z,30.30
2018-02-12T13:29:58.498Z,30.24
2018-02-12T13:32:26.809Z,30.29
2018-02-12T13:34:55.102Z,30.26
2018-02-12T13:37:23.438Z,30.18
2018-02-12T13:39:51.947Z,30.18
2018-02-12T13:42:20.956Z,30.19
2018-02-12T13:44:49.293Z,30.18
2018-02-12T13:47:17.610Z,30.22
2018-02-12T13:49:46.084Z,30.17
2018-02-12T13:52:14.375Z,30.16
2018-02-12T13:54:42.720Z,30.19
2018-02-12T13:57:11.028Z,30.22
2018-02-12T13:59:39.313Z,30.30
2018-02-12T14:02:07.618Z,30.56
2018-02-12T14:04:35.942Z,30.53
2018-02-12T14:07:04.254Z,30.56
2018-02-12T14:09:32.557Z,30.55
2018-02-12T14:12:02.627Z,30.50
2018-02-12T14:14:30.990Z,30.47
2018-02-12T14:16:59.300Z,30.43
2018-02-12T14:19:27.653Z,30.43
2018-02-12T14:21:55.986Z,30.35
2018-02-12T14:24:24.512Z,30.32
2018-02-12T14:26:52.914Z,30.29
2018-02-12T14:29:21.213Z,30.25
2018-02-12T14:31:49.517Z,30.23
2018-02-12T14:34:17.846Z,30.22
2018-02-12T14:36:46.190Z,30.22
2018-02-12T14:39:14.482Z,30.17
2018-02-12T14:41:42.774Z,30.16
2018-02-12T14:44:11.106Z,30.15
2018-02-12T14:46:39.480Z,30.12
2018-02-12T14:49:07.799Z,30.11
2018-02-12T14:51:36.089Z,30.11
2018-02-12T14:54:04.397Z,30.10
2018-02-12T14:56:32.737Z,30.08
2018-02-12T14:59:01.034Z,30.09
2018-02-12T15:01:29.332Z,30.10
2018-02-12T15:03:57.635Z,30.11
2018-02-12T15:06:25.951Z,30.12
2018-02-12T15:08:54.256Z,30.13
2018-02-12T15:11:22.782Z,30.11
2018-02-12T15:13:51.177Z,30.09
2018-02-12T15:16:19.478Z,30.07
2018-02-12T15:18:47.780Z,30.09
2018-02-12T15:21:16.089Z,29.53
2018-02-12T15:23:44.374Z,30.24
2018-02-12T15:26:12.680Z,30.96
2018-02-12T15:28:40.982Z,30.48
2018-02-12T15:31:09.275Z,30.98
2018-02-12T15:33:37.581Z,31.02
2018-02-12T15:36:05.901Z,30.99
2018-02-12T15:38:34.212Z,30.96
2018-02-12T15:41:02.498Z,30.94
2018-02-12T15:43:30.813Z,30.95
2018-02-12T15:45:59.111Z,31.07
2018-02-12T15:48:27.432Z,31.03
2018-02-12T15:50:55.728Z,31.04
2018-02-12T15:53:24.037Z,31.08
2018-02-12T15:55:52.357Z,31.03
2018-02-12T15:58:20.681Z,31.21
2018-02-12T16:00:48.969Z,31.18
2018-02-12T16:03:17.254Z,31.04
2018-02-12T16:05:45.556Z,31.05
2018-02-12T16:08:13.864Z,31.04
2018-02-12T16:10:42.171Z,30.90
2018-02-12T16:13:10.679Z,30.91
2018-02-12T16:15:38.983Z,30.91
2018-02-12T16:18:07.283Z,30.89
2018-02-12T16:20:35.607Z,30.92
2018-02-12T16:23:03.912Z,30.91
2018-02-12T16:25:32.253Z,30.92
2018-02-12T16:28:00.562Z,30.85
2018-02-12T16:30:28.882Z,30.84
2018-02-12T16:32:57.205Z,30.83
2018-02-12T16:35:25.503Z,30.83
2018-02-12T16:37:53.845Z,30.85
2018-02-12T16:40:22.140Z,30.83
2018-02-12T16:42:50.252Z,30.78
2018-02-12T16:45:18.557Z,30.79
2018-02-12T16:47:46.865Z,30.77
2018-02-12T16:50:15.235Z,30.68
2018-02-12T16:52:43.671Z,30.68
2018-02-12T16:55:11.958Z,30.76
2018-02-12T16:57:40.276Z,30.79
2018-02-12T17:00:08.569Z,30.79
2018-02-12T17:02:36.879Z,30.78
2018-02-12T17:05:04.978Z,30.74
2018-02-12T17:07:33.295Z,30.76
2018-02-12T17:10:01.597Z,30.79
2018-02-12T17:12:29.997Z,30.75
2018-02-12T17:14:58.315Z,30.79
2018-02-12T17:17:26.628Z,30.86
2018-02-12T17:19:54.930Z,30.79
2018-02-12T17:22:23.308Z,30.84
2018-02-12T17:24:51.743Z,30.86
2018-02-12T17:27:20.916Z,30.87
2018-02-12T17:29:49.288Z,30.85
2018-02-12T17:32:17.589Z,30.85
2018-02-12T17:34:45.938Z,30.85
2018-02-12T17:37:14.263Z,30.82
2018-02-12T17:39:42.593Z,30.87
2018-02-12T17:42:10.902Z,30.86
2018-02-12T17:44:39.223Z,30.86
2018-02-12T17:47:07.530Z,30.81
2018-02-12T17:49:35.860Z,30.77
2018-02-12T17:52:04.154Z,30.82
2018-02-12T17:54:32.262Z,30.81
2018-02-12T17:57:02.279Z,30.79
2018-02-12T17:59:30.574Z,30.79
2018-02-12T18:01:58.896Z,30.77
2018-02-12T18:04:27.206Z,30.79
2018-02-12T18:06:55.636Z,30.80
2018-02-12T18:09:23.978Z,30.81
2018-02-12T18:11:52.297Z,30.81
2018-02-12T18:14:20.595Z,30.81
2018-02-12T18:16:48.913Z,30.81
2018-02-12T18:19:17.239Z,30.82
2018-02-12T18:21:45.634Z,30.85
2018-02-12T18:24:13.961Z,29.51
2018-02-12T18:26:42.268Z,29.17
2018-02-12T18:29:10.555Z,29.92
2018-02-12T18:31:38.860Z,30.38
2018-02-12T18:34:07.211Z,30.41
2018-02-12T18:36:35.735Z,30.48
2018-02-12T18:39:04.053Z,30.46
2018-02-12T18:41:32.357Z,30.46
2018-02-12T18:44:00.678Z,30.40
2018-02-12T18:46:28.991Z,30.41
2018-02-12T18:48:57.340Z,30.48
2018-02-12T18:51:25.662Z,30.49
2018-02-12T18:53:53.953Z,30.56
2018-02-12T18:56:22.358Z,30.47
2018-02-12T18:58:50.562Z,30.63
2018-02-12T19:01:18.854Z,30.86
2018-02-12T19:03:47.165Z,30.99
2018-02-12T19:06:15.514Z,30.98
2018-02-12T19:08:43.876Z,30.90
2018-02-12T19:11:12.188Z,30.84
2018-02-12T19:13:41.468Z,30.78
2018-02-12T19:16:09.934Z,30.77
2018-02-12T19:18:38.358Z,30.75
2018-02-12T19:21:06.866Z,30.72
2018-02-12T19:23:35.247Z,30.63
2018-02-12T19:26:03.711Z,30.57
2018-02-12T19:28:32.016Z,30.59
2018-02-12T19:31:00.335Z,30.55
2018-02-12T19:33:28.660Z,30.55
2018-02-12T19:35:56.997Z,30.55
2018-02-12T19:38:25.423Z,30.48
2018-02-12T19:40:53.815Z,30.52
2018-02-12T19:43:22.603Z,30.54
2018-02-12T19:45:50.953Z,30.63
2018-02-12T19:48:19.347Z,30.58
2018-02-12T19:50:47.653Z,30.61
2018-02-12T19:53:15.989Z,30.60
2018-02-12T19:55:44.300Z,30.56
2018-02-12T19:58:13.155Z,30.53
2018-02-12T20:00:41.539Z,30.60
2018-02-12T20:03:09.847Z,30.61
2018-02-12T20:05:39.148Z,30.64
2018-02-12T20:08:08.339Z,30.68
2018-02-12T20:10:37.491Z,30.68
2018-02-12T20:13:10.595Z,30.73
2018-02-12T20:15:46.179Z,30.76
2018-02-12T20:18:14.538Z,30.78
2018-02-12T20:20:42.846Z,30.80
2018-02-12T20:23:11.773Z,30.84
2018-02-12T20:25:40.426Z,30.82
2018-02-12T20:28:08.735Z,30.88
2018-02-12T20:30:37.063Z,30.93
2018-02-12T20:33:05.427Z,30.92
2018-02-12T20:35:33.743Z,30.92
2018-02-12T20:38:02.222Z,30.93
2018-02-12T20:40:30.514Z,30.96
2018-02-12T20:42:59.116Z,30.96
2018-02-12T20:45:27.755Z,30.98
2018-02-12T20:47:56.235Z,30.98
2018-02-12T20:50:24.648Z,30.99
2018-02-12T20:52:52.990Z,30.98
2018-02-12T20:55:21.331Z,30.99
2018-02-12T20:57:49.646Z,30.99
2018-02-12T21:00:18.022Z,30.99
2018-02-12T21:02:46.482Z,30.97
2018-02-12T21:05:14.818Z,30.97
2018-02-12T21:07:42.974Z,31.01
2018-02-12T21:10:11.308Z,31.02
2018-02-12T21:12:39.631Z,31.04
2018-02-12T21:15:08.358Z,31.07
2018-02-12T21:17:36.654Z,31.10
2018-02-12T21:20:04.735Z,31.11
2018-02-12T21:22:33.052Z,31.11
2018-02-12T21:25:01.804Z,31.10
2018-02-12T21:27:30.135Z,31.12
2018-02-12T21:29:58.548Z,31.16
2018-02-12T21:32:26.861Z,31.17
2018-02-12T21:34:55.208Z,31.16
2018-02-12T21:37:23.547Z,31.17
2018-02-12T21:39:51.886Z,31.17
2018-02-12T21:42:20.213Z,31.16
2018-02-12T21:44:48.525Z,31.19
2018-02-12T21:47:16.813Z,31.19
2018-02-12T21:49:45.172Z,31.18
2018-02-12T21:52:13.474Z,31.17
2018-02-12T21:54:41.786Z,31.17
2018-02-12T21:57:10.108Z,31.19
2018-02-12T21:59:38.420Z,31.19
2018-02-12T22:02:06.755Z,31.18
2018-02-12T22:04:35.096Z,31.18
2018-02-12T22:07:03.401Z,31.18
2018-02-12T22:09:31.691Z,31.20
2018-02-12T22:11:59.995Z,31.20
2018-02-12T22:14:28.298Z,31.17
2018-02-12T22:16:56.591Z,31.21
2018-02-12T22:19:24.905Z,31.21
2018-02-12T22:21:53.200Z,31.22
2018-02-12T22:24:21.501Z,31.22
2018-02-12T22:26:49.811Z,31.22
2018-02-12T22:29:18.120Z,31.24
2018-02-12T22:31:46.443Z,31.24
2018-02-12T22:34:14.726Z,31.21
2018-02-12T22:36:43.050Z,31.24
2018-02-12T22:39:11.334Z,31.29
2018-02-12T22:41:39.641Z,31.29
2018-02-12T22:44:07.960Z,31.30
2018-02-12T22:46:36.262Z,31.31
2018-02-12T22:49:04.577Z,31.33
2018-02-12T22:51:32.869Z,31.33
2018-02-12T22:54:01.163Z,31.32
2018-02-12T22:56:29.477Z,31.29
2018-02-12T22:58:57.774Z,31.30
2018-02-12T23:01:26.077Z,31.34
2018-02-12T23:03:54.463Z,31.33
2018-02-12T23:06:22.776Z,31.33
2018-02-12T23:08:51.078Z,31.32
2018-02-12T23:11:19.377Z,31.33
2018-02-12T23:13:47.684Z,31.32
2018-02-12T23:16:15.969Z,31.35
2018-02-12T23:18:44.279Z,31.34
2018-02-12T23:21:12.590Z,31.36
2018-02-12T23:23:40.899Z,31.37
2018-02-12T23:26:09.190Z,31.35
2018-02-12T23:28:37.486Z,31.33
2018-02-12T23:31:05.805Z,31.32
2018-02-12T23:33:34.109Z,31.33
2018-02-12T23:36:02.416Z,31.33
2018-02-12T23:38:30.736Z,31.34
2018-02-12T23:40:59.043Z,31.33
2018-02-12T23:43:27.334Z,31.35
2018-02-12T23:45:55.735Z,31.36
2018-02-12T23:48:24.208Z,31.37
2018-02-12T23:50:52.506Z,31.42
2018-02-12T23:53:20.799Z,31.37
2018-02-12T23:55:49.140Z,31.38
2018-02-12T23:58:17.442Z,31.37
